sensor_id;sensor_type;location;lat;lon;timestamp;P1;durP1;ratioP1;P2;durP2;ratioP2
70420;SDS011;57848;51.938;15.520;2022-10-30T00:00:20;21.47;;;11.33;;
70420;SDS011;57848;51.938;15.520;2022-10-30T00:02:46;22.70;;;11.20;;
70420;SDS011;57848;51.938;15.520;2022-10-30T00:05:12;20.23;;;11.27;;
70420;SDS011;57848;51.938;15.520;2022-10-30T00:07:37;19.63;;;10.20;;
70420;SDS011;57848;51.938;15.520;2022-10-30T00:10:02;23.43;;;10.93;;
70420;SDS011;57848;51.938;15.520;2022-10-30T00:12:28;23.15;;;10.30;;
70420;SDS011;57848;51.938;15.520;2022-10-30T00:14:53;23.30;;;9.80;;
70420;SDS011;57848;51.938;15.520;2022-10-30T00:17:19;25.30;;;10.70;;
70420;SDS011;57848;51.938;15.520;2022-10-30T00:19:44;20.13;;;10.73;;
70420;SDS011;57848;51.938;15.520;2022-10-30T00:22:09;23.47;;;10.90;;
70420;SDS011;57848;51.938;15.520;2022-10-30T00:24:35;28.45;;;10.48;;
70420;SDS011;57848;51.938;15.520;2022-10-30T00:27:00;23.70;;;10.73;;
70420;SDS011;57848;51.938;15.520;2022-10-30T00:29:26;21.67;;;10.20;;
70420;SDS011;57848;51.938;15.520;2022-10-30T00:31:51;24.83;;;10.60;;
70420;SDS011;57848;51.938;15.520;2022-10-30T00:34:17;22.80;;;10.63;;
70420;SDS011;57848;51.938;15.520;2022-10-30T00:36:43;20.05;;;9.55;;
70420;SDS011;57848;51.938;15.520;2022-10-30T00:39:09;21.13;;;10.33;;
70420;SDS011;57848;51.938;15.520;2022-10-30T00:41:36;26.63;;;10.77;;
70420;SDS011;57848;51.938;15.520;2022-10-30T00:44:50;21.67;;;10.77;;
70420;SDS011;57848;51.938;15.520;2022-10-30T00:47:18;24.02;;;10.88;;
70420;SDS011;57848;51.938;15.520;2022-10-30T00:49:52;22.33;;;10.43;;
70420;SDS011;57848;51.938;15.520;2022-10-30T00:52:23;21.02;;;10.30;;
70420;SDS011;57848;51.938;15.520;2022-10-30T00:54:55;19.90;;;10.20;;
70420;SDS011;57848;51.938;15.520;2022-10-30T00:57:23;21.10;;;10.70;;
70420;SDS011;57848;51.938;15.520;2022-10-30T00:59:50;21.60;;;10.25;;
70420;SDS011;57848;51.938;15.520;2022-10-30T01:02:16;24.23;;;10.93;;
70420;SDS011;57848;51.938;15.520;2022-10-30T01:04:43;21.40;;;10.85;;
70420;SDS011;57848;51.938;15.520;2022-10-30T01:07:11;23.70;;;10.20;;
70420;SDS011;57848;51.938;15.520;2022-10-30T01:09:38;22.02;;;11.45;;
70420;SDS011;57848;51.938;15.520;2022-10-30T01:12:04;19.80;;;10.43;;
70420;SDS011;57848;51.938;15.520;2022-10-30T01:14:30;23.55;;;10.73;;
70420;SDS011;57848;51.938;15.520;2022-10-30T01:17:00;21.80;;;10.65;;
70420;SDS011;57848;51.938;15.520;2022-10-30T01:36:23;21.13;;;10.53;;
70420;SDS011;57848;51.938;15.520;2022-10-30T01:38:55;22.38;;;9.95;;
70420;SDS011;57848;51.938;15.520;2022-10-30T01:41:25;27.17;;;10.48;;
70420;SDS011;57848;51.938;15.520;2022-10-30T01:43:54;22.98;;;10.65;;
70420;SDS011;57848;51.938;15.520;2022-10-30T01:54:24;25.95;;;11.02;;
70420;SDS011;57848;51.938;15.520;2022-10-30T01:57:16;25.88;;;11.48;;
70420;SDS011;57848;51.938;15.520;2022-10-30T02:00:10;20.45;;;10.13;;
70420;SDS011;57848;51.938;15.520;2022-10-30T02:02:45;23.20;;;10.50;;
70420;SDS011;57848;51.938;15.520;2022-10-30T02:05:16;21.70;;;11.23;;
70420;SDS011;57848;51.938;15.520;2022-10-30T02:07:50;24.50;;;11.05;;
70420;SDS011;57848;51.938;15.520;2022-10-30T02:10:16;21.10;;;10.25;;
70420;SDS011;57848;51.938;15.520;2022-10-30T02:12:41;21.60;;;11.10;;
70420;SDS011;57848;51.938;15.520;2022-10-30T02:15:07;21.75;;;10.48;;
70420;SDS011;57848;51.938;15.520;2022-10-30T02:17:33;23.48;;;10.88;;
70420;SDS011;57848;51.938;15.520;2022-10-30T02:19:59;22.37;;;10.90;;
70420;SDS011;57848;51.938;15.520;2022-10-30T02:22:24;22.10;;;10.83;;
70420;SDS011;57848;51.938;15.520;2022-10-30T02:24:49;26.73;;;11.17;;
70420;SDS011;57848;51.938;15.520;2022-10-30T02:27:18;23.27;;;11.23;;
70420;SDS011;57848;51.938;15.520;2022-10-30T02:29:43;23.90;;;10.40;;
70420;SDS011;57848;51.938;15.520;2022-10-30T02:32:08;23.87;;;9.77;;
70420;SDS011;57848;51.938;15.520;2022-10-30T02:34:34;24.67;;;9.83;;
70420;SDS011;57848;51.938;15.520;2022-10-30T02:36:59;21.63;;;10.68;;
70420;SDS011;57848;51.938;15.520;2022-10-30T02:39:26;22.65;;;10.95;;
70420;SDS011;57848;51.938;15.520;2022-10-30T02:41:51;23.10;;;10.00;;
70420;SDS011;57848;51.938;15.520;2022-10-30T02:44:16;24.07;;;10.13;;
70420;SDS011;57848;51.938;15.520;2022-10-30T02:46:42;24.93;;;10.50;;
70420;SDS011;57848;51.938;15.520;2022-10-30T02:49:07;21.10;;;10.37;;
70420;SDS011;57848;51.938;15.520;2022-10-30T02:51:32;19.70;;;9.97;;
70420;SDS011;57848;51.938;15.520;2022-10-30T02:53:58;21.50;;;9.40;;
70420;SDS011;57848;51.938;15.520;2022-10-30T02:56:24;20.02;;;9.45;;
70420;SDS011;57848;51.938;15.520;2022-10-30T02:58:50;21.13;;;9.53;;
70420;SDS011;57848;51.938;15.520;2022-10-30T03:01:17;22.00;;;9.85;;
70420;SDS011;57848;51.938;15.520;2022-10-30T03:03:43;23.95;;;10.65;;
70420;SDS011;57848;51.938;15.520;2022-10-30T03:06:11;20.50;;;9.43;;
70420;SDS011;57848;51.938;15.520;2022-10-30T03:08:39;20.65;;;9.88;;
70420;SDS011;57848;51.938;15.520;2022-10-30T03:11:06;21.38;;;10.27;;
70420;SDS011;57848;51.938;15.520;2022-10-30T03:13:39;22.47;;;9.80;;
70420;SDS011;57848;51.938;15.520;2022-10-30T03:16:06;22.90;;;10.95;;
70420;SDS011;57848;51.938;15.520;2022-10-30T03:18:33;21.48;;;10.23;;
70420;SDS011;57848;51.938;15.520;2022-10-30T03:21:06;26.20;;;10.98;;
70420;SDS011;57848;51.938;15.520;2022-10-30T03:23:34;24.25;;;10.65;;
70420;SDS011;57848;51.938;15.520;2022-10-30T03:26:00;23.37;;;10.47;;
70420;SDS011;57848;51.938;15.520;2022-10-30T03:28:27;20.05;;;10.35;;
70420;SDS011;57848;51.938;15.520;2022-10-30T03:30:57;19.58;;;10.52;;
70420;SDS011;57848;51.938;15.520;2022-10-30T03:33:24;24.90;;;10.82;;
70420;SDS011;57848;51.938;15.520;2022-10-30T03:35:49;25.70;;;11.57;;
70420;SDS011;57848;51.938;15.520;2022-10-30T03:38:14;21.10;;;10.53;;
70420;SDS011;57848;51.938;15.520;2022-10-30T03:40:40;23.15;;;10.55;;
70420;SDS011;57848;51.938;15.520;2022-10-30T03:43:06;23.30;;;11.10;;
70420;SDS011;57848;51.938;15.520;2022-10-30T03:45:32;24.38;;;11.88;;
70420;SDS011;57848;51.938;15.520;2022-10-30T03:48:02;24.87;;;11.10;;
70420;SDS011;57848;51.938;15.520;2022-10-30T03:50:29;23.92;;;11.43;;
70420;SDS011;57848;51.938;15.520;2022-10-30T03:52:54;22.70;;;11.80;;
70420;SDS011;57848;51.938;15.520;2022-10-30T03:55:20;24.40;;;11.32;;
70420;SDS011;57848;51.938;15.520;2022-10-30T03:57:46;22.80;;;12.00;;
70420;SDS011;57848;51.938;15.520;2022-10-30T04:00:14;21.73;;;10.23;;
70420;SDS011;57848;51.938;15.520;2022-10-30T04:02:51;22.42;;;12.75;;
70420;SDS011;57848;51.938;15.520;2022-10-30T04:05:17;21.60;;;11.07;;
70420;SDS011;57848;51.938;15.520;2022-10-30T04:07:45;24.90;;;11.80;;
70420;SDS011;57848;51.938;15.520;2022-10-30T04:10:11;24.40;;;11.63;;
70420;SDS011;57848;51.938;15.520;2022-10-30T04:12:37;22.27;;;11.03;;
70420;SDS011;57848;51.938;15.520;2022-10-30T04:15:03;20.83;;;11.15;;
70420;SDS011;57848;51.938;15.520;2022-10-30T04:17:29;23.10;;;11.23;;
70420;SDS011;57848;51.938;15.520;2022-10-30T04:19:55;23.57;;;10.60;;
70420;SDS011;57848;51.938;15.520;2022-10-30T04:22:21;21.13;;;11.15;;
70420;SDS011;57848;51.938;15.520;2022-10-30T04:24:47;22.77;;;10.70;;
70420;SDS011;57848;51.938;15.520;2022-10-30T04:27:13;20.67;;;9.65;;
70420;SDS011;57848;51.938;15.520;2022-10-30T04:29:39;26.10;;;11.10;;
70420;SDS011;57848;51.938;15.520;2022-10-30T04:32:06;22.00;;;10.50;;
70420;SDS011;57848;51.938;15.520;2022-10-30T04:34:32;23.20;;;10.80;;
70420;SDS011;57848;51.938;15.520;2022-10-30T04:36:57;22.33;;;10.70;;
70420;SDS011;57848;51.938;15.520;2022-10-30T04:39:22;23.77;;;10.73;;
70420;SDS011;57848;51.938;15.520;2022-10-30T04:41:52;23.67;;;10.80;;
70420;SDS011;57848;51.938;15.520;2022-10-30T04:44:24;24.42;;;11.32;;
70420;SDS011;57848;51.938;15.520;2022-10-30T04:46:53;22.38;;;11.27;;
70420;SDS011;57848;51.938;15.520;2022-10-30T04:49:18;22.37;;;11.77;;
70420;SDS011;57848;51.938;15.520;2022-10-30T04:51:43;24.23;;;11.10;;
70420;SDS011;57848;51.938;15.520;2022-10-30T04:54:11;25.67;;;11.93;;
70420;SDS011;57848;51.938;15.520;2022-10-30T04:56:37;24.60;;;11.83;;
70420;SDS011;57848;51.938;15.520;2022-10-30T04:59:02;21.27;;;11.10;;
70420;SDS011;57848;51.938;15.520;2022-10-30T05:01:28;22.03;;;11.03;;
70420;SDS011;57848;51.938;15.520;2022-10-30T05:03:54;29.50;;;11.50;;
70420;SDS011;57848;51.938;15.520;2022-10-30T05:06:24;23.27;;;11.10;;
70420;SDS011;57848;51.938;15.520;2022-10-30T05:08:51;23.55;;;10.82;;
70420;SDS011;57848;51.938;15.520;2022-10-30T05:11:30;24.70;;;10.83;;
70420;SDS011;57848;51.938;15.520;2022-10-30T05:13:56;22.88;;;10.77;;
70420;SDS011;57848;51.938;15.520;2022-10-30T05:16:22;23.88;;;11.40;;
70420;SDS011;57848;51.938;15.520;2022-10-30T05:18:49;22.57;;;10.57;;
70420;SDS011;57848;51.938;15.520;2022-10-30T05:21:14;24.30;;;10.97;;
70420;SDS011;57848;51.938;15.520;2022-10-30T05:23:40;22.27;;;10.73;;
70420;SDS011;57848;51.938;15.520;2022-10-30T05:26:05;20.17;;;9.63;;
70420;SDS011;57848;51.938;15.520;2022-10-30T05:28:31;21.50;;;10.67;;
70420;SDS011;57848;51.938;15.520;2022-10-30T05:30:57;24.02;;;11.65;;
70420;SDS011;57848;51.938;15.520;2022-10-30T05:33:40;25.52;;;11.60;;
70420;SDS011;57848;51.938;15.520;2022-10-30T05:36:06;21.77;;;10.27;;
70420;SDS011;57848;51.938;15.520;2022-10-30T05:38:32;21.27;;;10.82;;
70420;SDS011;57848;51.938;15.520;2022-10-30T05:40:58;24.40;;;10.40;;
70420;SDS011;57848;51.938;15.520;2022-10-30T05:43:23;19.80;;;10.33;;
70420;SDS011;57848;51.938;15.520;2022-10-30T05:45:49;22.80;;;10.03;;
70420;SDS011;57848;51.938;15.520;2022-10-30T05:48:16;25.90;;;10.20;;
70420;SDS011;57848;51.938;15.520;2022-10-30T05:50:43;18.05;;;9.00;;
70420;SDS011;57848;51.938;15.520;2022-10-30T05:53:16;18.52;;;9.88;;
70420;SDS011;57848;51.938;15.520;2022-10-30T05:55:42;23.50;;;8.93;;
70420;SDS011;57848;51.938;15.520;2022-10-30T05:58:11;17.15;;;9.20;;
70420;SDS011;57848;51.938;15.520;2022-10-30T06:00:40;21.05;;;9.50;;
70420;SDS011;57848;51.938;15.520;2022-10-30T06:03:09;16.50;;;7.30;;
70420;SDS011;57848;51.938;15.520;2022-10-30T06:05:37;18.98;;;8.50;;
70420;SDS011;57848;51.938;15.520;2022-10-30T06:08:04;20.83;;;7.87;;
70420;SDS011;57848;51.938;15.520;2022-10-30T06:10:31;16.02;;;7.68;;
70420;SDS011;57848;51.938;15.520;2022-10-30T06:13:23;17.30;;;7.18;;
70420;SDS011;57848;51.938;15.520;2022-10-30T06:15:58;22.90;;;7.45;;
70420;SDS011;57848;51.938;15.520;2022-10-30T06:18:30;27.15;;;7.50;;
70420;SDS011;57848;51.938;15.520;2022-10-30T06:21:04;19.13;;;7.87;;
70420;SDS011;57848;51.938;15.520;2022-10-30T06:23:56;17.92;;;6.95;;
70420;SDS011;57848;51.938;15.520;2022-10-30T06:26:30;18.60;;;8.00;;
70420;SDS011;57848;51.938;15.520;2022-10-30T06:29:02;17.40;;;6.82;;
70420;SDS011;57848;51.938;15.520;2022-10-30T06:31:28;16.33;;;7.15;;
70420;SDS011;57848;51.938;15.520;2022-10-30T06:33:53;15.77;;;6.83;;
70420;SDS011;57848;51.938;15.520;2022-10-30T06:36:19;15.97;;;6.53;;
70420;SDS011;57848;51.938;15.520;2022-10-30T06:38:44;15.67;;;7.30;;
70420;SDS011;57848;51.938;15.520;2022-10-30T06:41:12;16.70;;;7.47;;
70420;SDS011;57848;51.938;15.520;2022-10-30T06:43:55;18.85;;;6.97;;
70420;SDS011;57848;51.938;15.520;2022-10-30T06:46:22;12.70;;;6.22;;
70420;SDS011;57848;51.938;15.520;2022-10-30T06:48:49;16.73;;;6.20;;
70420;SDS011;57848;51.938;15.520;2022-10-30T06:51:15;16.63;;;6.27;;
70420;SDS011;57848;51.938;15.520;2022-10-30T06:53:41;16.58;;;6.70;;
70420;SDS011;57848;51.938;15.520;2022-10-30T06:56:25;14.82;;;6.15;;
70420;SDS011;57848;51.938;15.520;2022-10-30T06:59:06;19.02;;;6.35;;
70420;SDS011;57848;51.938;15.520;2022-10-30T07:01:55;17.20;;;7.05;;
70420;SDS011;57848;51.938;15.520;2022-10-30T07:04:21;17.37;;;7.03;;
70420;SDS011;57848;51.938;15.520;2022-10-30T07:06:47;17.67;;;6.68;;
70420;SDS011;57848;51.938;15.520;2022-10-30T07:09:12;18.03;;;7.30;;
70420;SDS011;57848;51.938;15.520;2022-10-30T07:11:37;17.67;;;7.63;;
70420;SDS011;57848;51.938;15.520;2022-10-30T07:14:26;19.45;;;7.88;;
70420;SDS011;57848;51.938;15.520;2022-10-30T07:16:56;16.67;;;8.37;;
70420;SDS011;57848;51.938;15.520;2022-10-30T07:19:22;20.15;;;8.02;;
70420;SDS011;57848;51.938;15.520;2022-10-30T07:21:47;18.63;;;7.60;;
70420;SDS011;57848;51.938;15.520;2022-10-30T07:24:13;18.57;;;7.50;;
70420;SDS011;57848;51.938;15.520;2022-10-30T07:26:57;18.52;;;8.70;;
70420;SDS011;57848;51.938;15.520;2022-10-30T07:29:32;20.38;;;9.15;;
70420;SDS011;57848;51.938;15.520;2022-10-30T07:32:15;19.83;;;9.73;;
70420;SDS011;57848;51.938;15.520;2022-10-30T07:34:59;19.57;;;9.40;;
70420;SDS011;57848;51.938;15.520;2022-10-30T07:37:31;17.10;;;8.88;;
70420;SDS011;57848;51.938;15.520;2022-10-30T07:40:03;19.45;;;9.07;;
70420;SDS011;57848;51.938;15.520;2022-10-30T07:42:55;21.33;;;8.27;;
70420;SDS011;57848;51.938;15.520;2022-10-30T07:45:36;24.08;;;7.97;;
70420;SDS011;57848;51.938;15.520;2022-10-30T07:48:21;20.07;;;8.07;;
70420;SDS011;57848;51.938;15.520;2022-10-30T07:51:01;16.33;;;7.90;;
70420;SDS011;57848;51.938;15.520;2022-10-30T07:53:27;18.92;;;8.02;;
70420;SDS011;57848;51.938;15.520;2022-10-30T07:55:54;16.25;;;7.43;;
70420;SDS011;57848;51.938;15.520;2022-10-30T07:58:38;15.07;;;7.40;;
70420;SDS011;57848;51.938;15.520;2022-10-30T08:01:31;17.73;;;7.78;;
70420;SDS011;57848;51.938;15.520;2022-10-30T08:04:06;17.05;;;8.00;;
70420;SDS011;57848;51.938;15.520;2022-10-30T08:06:35;15.57;;;7.65;;
70420;SDS011;57848;51.938;15.520;2022-10-30T08:09:00;14.07;;;7.40;;
70420;SDS011;57848;51.938;15.520;2022-10-30T08:11:26;15.60;;;7.90;;
70420;SDS011;57848;51.938;15.520;2022-10-30T08:13:53;17.15;;;7.35;;
70420;SDS011;57848;51.938;15.520;2022-10-30T08:16:18;22.40;;;8.60;;
70420;SDS011;57848;51.938;15.520;2022-10-30T08:18:43;19.17;;;7.03;;
70420;SDS011;57848;51.938;15.520;2022-10-30T08:21:10;16.10;;;7.45;;
70420;SDS011;57848;51.938;15.520;2022-10-30T08:23:43;18.02;;;7.50;;
70420;SDS011;57848;51.938;15.520;2022-10-30T08:26:12;16.97;;;7.40;;
70420;SDS011;57848;51.938;15.520;2022-10-30T08:28:38;15.68;;;6.88;;
70420;SDS011;57848;51.938;15.520;2022-10-30T08:31:07;20.67;;;7.80;;
70420;SDS011;57848;51.938;15.520;2022-10-30T08:33:52;13.57;;;6.43;;
70420;SDS011;57848;51.938;15.520;2022-10-30T08:36:32;15.40;;;6.78;;
70420;SDS011;57848;51.938;15.520;2022-10-30T08:38:58;14.73;;;6.93;;
70420;SDS011;57848;51.938;15.520;2022-10-30T08:41:38;16.08;;;7.53;;
70420;SDS011;57848;51.938;15.520;2022-10-30T08:44:04;14.10;;;6.70;;
70420;SDS011;57848;51.938;15.520;2022-10-30T08:46:48;14.45;;;7.15;;
70420;SDS011;57848;51.938;15.520;2022-10-30T08:49:13;16.03;;;6.57;;
70420;SDS011;57848;51.938;15.520;2022-10-30T08:51:45;13.73;;;6.60;;
70420;SDS011;57848;51.938;15.520;2022-10-30T08:54:11;16.58;;;6.97;;
70420;SDS011;57848;51.938;15.520;2022-10-30T08:56:37;16.63;;;6.83;;
70420;SDS011;57848;51.938;15.520;2022-10-30T08:59:07;18.27;;;7.10;;
70420;SDS011;57848;51.938;15.520;2022-10-30T09:01:34;14.43;;;6.22;;
70420;SDS011;57848;51.938;15.520;2022-10-30T09:04:26;14.43;;;6.30;;
70420;SDS011;57848;51.938;15.520;2022-10-30T09:07:10;15.68;;;6.93;;
70420;SDS011;57848;51.938;15.520;2022-10-30T09:09:55;16.38;;;7.05;;
70420;SDS011;57848;51.938;15.520;2022-10-30T09:12:22;16.45;;;7.53;;
70420;SDS011;57848;51.938;15.520;2022-10-30T09:14:48;22.70;;;7.40;;
70420;SDS011;57848;51.938;15.520;2022-10-30T09:17:13;17.13;;;7.20;;
70420;SDS011;57848;51.938;15.520;2022-10-30T09:19:42;18.48;;;7.70;;
70420;SDS011;57848;51.938;15.520;2022-10-30T09:22:09;15.77;;;7.20;;
70420;SDS011;57848;51.938;15.520;2022-10-30T09:24:38;22.40;;;7.75;;
70420;SDS011;57848;51.938;15.520;2022-10-30T09:27:39;14.65;;;7.47;;
70420;SDS011;57848;51.938;15.520;2022-10-30T09:30:06;15.27;;;7.80;;
70420;SDS011;57848;51.938;15.520;2022-10-30T09:32:36;16.88;;;8.55;;
70420;SDS011;57848;51.938;15.520;2022-10-30T09:35:10;21.07;;;8.17;;
70420;SDS011;57848;51.938;15.520;2022-10-30T09:37:37;19.38;;;8.25;;
70420;SDS011;57848;51.938;15.520;2022-10-30T09:42:53;17.40;;;8.32;;
70420;SDS011;57848;51.938;15.520;2022-10-30T09:45:32;19.98;;;7.90;;
70420;SDS011;57848;51.938;15.520;2022-10-30T09:54:26;17.75;;;8.55;;
70420;SDS011;57848;51.938;15.520;2022-10-30T09:57:17;17.77;;;9.68;;
70420;SDS011;57848;51.938;15.520;2022-10-30T10:05:16;16.97;;;8.23;;
70420;SDS011;57848;51.938;15.520;2022-10-30T10:08:07;16.17;;;8.25;;
70420;SDS011;57848;51.938;15.520;2022-10-30T10:11:04;14.13;;;7.80;;
70420;SDS011;57848;51.938;15.520;2022-10-30T10:13:41;14.40;;;6.75;;
70420;SDS011;57848;51.938;15.520;2022-10-30T10:16:26;15.98;;;6.43;;
70420;SDS011;57848;51.938;15.520;2022-10-30T10:18:59;14.67;;;7.13;;
70420;SDS011;57848;51.938;15.520;2022-10-30T10:21:34;17.35;;;7.53;;
70420;SDS011;57848;51.938;15.520;2022-10-30T10:24:15;16.50;;;7.95;;
70420;SDS011;57848;51.938;15.520;2022-10-30T10:26:55;19.45;;;7.65;;
70420;SDS011;57848;51.938;15.520;2022-10-30T10:32:33;15.60;;;8.33;;
70420;SDS011;57848;51.938;15.520;2022-10-30T10:35:32;15.75;;;8.10;;
70420;SDS011;57848;51.938;15.520;2022-10-30T10:40:59;18.95;;;8.93;;
70420;SDS011;57848;51.938;15.520;2022-10-30T10:46:17;19.63;;;8.27;;
70420;SDS011;57848;51.938;15.520;2022-10-30T10:49:20;14.18;;;7.65;;
70420;SDS011;57848;51.938;15.520;2022-10-30T10:52:09;17.00;;;8.65;;
70420;SDS011;57848;51.938;15.520;2022-10-30T10:54:49;19.10;;;8.50;;
70420;SDS011;57848;51.938;15.520;2022-10-30T11:00:01;17.77;;;8.00;;
70420;SDS011;57848;51.938;15.520;2022-10-30T11:02:32;19.48;;;8.27;;
70420;SDS011;57848;51.938;15.520;2022-10-30T11:07:46;18.60;;;7.78;;
70420;SDS011;57848;51.938;15.520;2022-10-30T11:10:13;18.30;;;7.10;;
70420;SDS011;57848;51.938;15.520;2022-10-30T11:12:40;14.47;;;7.13;;
70420;SDS011;57848;51.938;15.520;2022-10-30T11:15:17;17.20;;;6.90;;
70420;SDS011;57848;51.938;15.520;2022-10-30T11:17:52;14.52;;;6.43;;
70420;SDS011;57848;51.938;15.520;2022-10-30T11:20:43;14.63;;;6.10;;
70420;SDS011;57848;51.938;15.520;2022-10-30T11:23:29;16.88;;;7.05;;
70420;SDS011;57848;51.938;15.520;2022-10-30T11:26:02;17.07;;;7.67;;
70420;SDS011;57848;51.938;15.520;2022-10-30T11:28:35;15.40;;;7.10;;
70420;SDS011;57848;51.938;15.520;2022-10-30T11:31:22;17.58;;;6.05;;
70420;SDS011;57848;51.938;15.520;2022-10-30T11:33:51;17.13;;;6.22;;
70420;SDS011;57848;51.938;15.520;2022-10-30T11:36:18;18.60;;;8.23;;
70420;SDS011;57848;51.938;15.520;2022-10-30T11:38:47;15.50;;;7.47;;
70420;SDS011;57848;51.938;15.520;2022-10-30T11:41:12;17.87;;;8.37;;
70420;SDS011;57848;51.938;15.520;2022-10-30T11:43:39;19.60;;;7.20;;
70420;SDS011;57848;51.938;15.520;2022-10-30T11:46:08;15.77;;;6.93;;
70420;SDS011;57848;51.938;15.520;2022-10-30T11:48:42;16.47;;;6.47;;
70420;SDS011;57848;51.938;15.520;2022-10-30T11:51:09;12.55;;;6.05;;
70420;SDS011;57848;51.938;15.520;2022-10-30T11:53:38;15.55;;;6.15;;
70420;SDS011;57848;51.938;15.520;2022-10-30T11:56:11;12.05;;;5.97;;
70420;SDS011;57848;51.938;15.520;2022-10-30T11:58:41;17.58;;;7.03;;
70420;SDS011;57848;51.938;15.520;2022-10-30T12:01:19;15.17;;;6.90;;
70420;SDS011;57848;51.938;15.520;2022-10-30T12:03:49;18.70;;;6.13;;
70420;SDS011;57848;51.938;15.520;2022-10-30T12:09:12;15.68;;;6.13;;
70420;SDS011;57848;51.938;15.520;2022-10-30T12:11:45;14.20;;;5.32;;
70420;SDS011;57848;51.938;15.520;2022-10-30T12:14:15;15.83;;;5.83;;
70420;SDS011;57848;51.938;15.520;2022-10-30T12:16:44;11.00;;;5.15;;
70420;SDS011;57848;51.938;15.520;2022-10-30T12:19:11;14.77;;;5.88;;
70420;SDS011;57848;51.938;15.520;2022-10-30T12:21:40;13.75;;;6.30;;
70420;SDS011;57848;51.938;15.520;2022-10-30T12:24:15;14.67;;;5.70;;
70420;SDS011;57848;51.938;15.520;2022-10-30T12:27:04;12.25;;;6.20;;
70420;SDS011;57848;51.938;15.520;2022-10-30T12:29:39;15.27;;;6.13;;
70420;SDS011;57848;51.938;15.520;2022-10-30T12:32:18;15.95;;;6.15;;
70420;SDS011;57848;51.938;15.520;2022-10-30T12:34:48;13.30;;;5.63;;
70420;SDS011;57848;51.938;15.520;2022-10-30T12:37:25;16.23;;;6.03;;
70420;SDS011;57848;51.938;15.520;2022-10-30T12:42:41;15.82;;;6.38;;
70420;SDS011;57848;51.938;15.520;2022-10-30T12:45:15;16.10;;;5.63;;
70420;SDS011;57848;51.938;15.520;2022-10-30T12:47:54;16.25;;;5.43;;
70420;SDS011;57848;51.938;15.520;2022-10-30T12:50:35;15.27;;;5.40;;
70420;SDS011;57848;51.938;15.520;2022-10-30T12:55:59;14.18;;;5.55;;
70420;SDS011;57848;51.938;15.520;2022-10-30T13:01:21;15.27;;;6.78;;
70420;SDS011;57848;51.938;15.520;2022-10-30T13:03:56;13.60;;;5.70;;
70420;SDS011;57848;51.938;15.520;2022-10-30T13:06:31;16.38;;;5.93;;
70420;SDS011;57848;51.938;15.520;2022-10-30T13:09:26;15.40;;;6.53;;
70420;SDS011;57848;51.938;15.520;2022-10-30T13:12:02;14.98;;;6.05;;
70420;SDS011;57848;51.938;15.520;2022-10-30T13:14:33;18.25;;;6.30;;
70420;SDS011;57848;51.938;15.520;2022-10-30T13:17:08;14.87;;;5.80;;
70420;SDS011;57848;51.938;15.520;2022-10-30T13:19:38;18.45;;;6.20;;
70420;SDS011;57848;51.938;15.520;2022-10-30T13:22:06;14.55;;;6.05;;
70420;SDS011;57848;51.938;15.520;2022-10-30T13:30:03;12.30;;;6.07;;
70420;SDS011;57848;51.938;15.520;2022-10-30T13:32:40;13.65;;;6.75;;
70420;SDS011;57848;51.938;15.520;2022-10-30T13:38:33;13.65;;;5.72;;
70420;SDS011;57848;51.938;15.520;2022-10-30T13:41:10;18.45;;;6.25;;
70420;SDS011;57848;51.938;15.520;2022-10-30T13:44:03;13.80;;;5.43;;
70420;SDS011;57848;51.938;15.520;2022-10-30T13:52:17;11.18;;;4.30;;
70420;SDS011;57848;51.938;15.520;2022-10-30T14:00:19;13.13;;;4.22;;
70420;SDS011;57848;51.938;15.520;2022-10-30T14:05:50;14.70;;;4.80;;
70420;SDS011;57848;51.938;15.520;2022-10-30T14:11:06;12.07;;;4.90;;
70420;SDS011;57848;51.938;15.520;2022-10-30T14:13:43;12.52;;;4.63;;
70420;SDS011;57848;51.938;15.520;2022-10-30T14:16:33;12.20;;;4.30;;
70420;SDS011;57848;51.938;15.520;2022-10-30T14:19:10;16.60;;;4.43;;
70420;SDS011;57848;51.938;15.520;2022-10-30T14:21:37;15.30;;;4.57;;
70420;SDS011;57848;51.938;15.520;2022-10-30T14:24:21;14.43;;;4.37;;
70420;SDS011;57848;51.938;15.520;2022-10-30T14:26:51;14.30;;;4.70;;
70420;SDS011;57848;51.938;15.520;2022-10-30T14:29:28;15.65;;;5.38;;
70420;SDS011;57848;51.938;15.520;2022-10-30T14:37:14;12.43;;;4.37;;
70420;SDS011;57848;51.938;15.520;2022-10-30T14:39:43;12.38;;;4.57;;
70420;SDS011;57848;51.938;15.520;2022-10-30T14:42:11;12.40;;;6.00;;
70420;SDS011;57848;51.938;15.520;2022-10-30T14:44:51;16.58;;;4.90;;
70420;SDS011;57848;51.938;15.520;2022-10-30T14:53:20;17.08;;;5.18;;
70420;SDS011;57848;51.938;15.520;2022-10-30T14:56:02;14.25;;;5.22;;
70420;SDS011;57848;51.938;15.520;2022-10-30T14:58:31;14.60;;;5.20;;
70420;SDS011;57848;51.938;15.520;2022-10-30T15:05:57;16.92;;;5.28;;
70420;SDS011;57848;51.938;15.520;2022-10-30T15:11:30;18.20;;;4.57;;
70420;SDS011;57848;51.938;15.520;2022-10-30T15:13:59;12.88;;;4.55;;
70420;SDS011;57848;51.938;15.520;2022-10-30T15:16:29;14.40;;;5.07;;
70420;SDS011;57848;51.938;15.520;2022-10-30T15:19:00;15.15;;;4.93;;
70420;SDS011;57848;51.938;15.520;2022-10-30T15:21:29;14.15;;;4.32;;
70420;SDS011;57848;51.938;15.520;2022-10-30T15:23:58;12.65;;;4.47;;
70420;SDS011;57848;51.938;15.520;2022-10-30T15:26:27;16.17;;;4.60;;
70420;SDS011;57848;51.938;15.520;2022-10-30T15:28:58;11.83;;;4.00;;
70420;SDS011;57848;51.938;15.520;2022-10-30T15:31:25;18.15;;;4.53;;
70420;SDS011;57848;51.938;15.520;2022-10-30T15:33:53;15.50;;;4.30;;
70420;SDS011;57848;51.938;15.520;2022-10-30T15:36:20;13.85;;;4.50;;
70420;SDS011;57848;51.938;15.520;2022-10-30T15:41:28;16.50;;;4.73;;
70420;SDS011;57848;51.938;15.520;2022-10-30T15:43:54;15.75;;;5.07;;
70420;SDS011;57848;51.938;15.520;2022-10-30T15:46:19;15.40;;;4.50;;
70420;SDS011;57848;51.938;15.520;2022-10-30T15:48:45;13.68;;;5.10;;
70420;SDS011;57848;51.938;15.520;2022-10-30T15:51:15;20.85;;;5.60;;
70420;SDS011;57848;51.938;15.520;2022-10-30T15:53:45;19.83;;;6.07;;
70420;SDS011;57848;51.938;15.520;2022-10-30T15:59:00;16.10;;;4.93;;
70420;SDS011;57848;51.938;15.520;2022-10-30T16:01:34;18.23;;;6.40;;
70420;SDS011;57848;51.938;15.520;2022-10-30T16:04:16;16.33;;;5.72;;
70420;SDS011;57848;51.938;15.520;2022-10-30T16:06:52;16.45;;;5.05;;
70420;SDS011;57848;51.938;15.520;2022-10-30T16:09:19;17.10;;;5.87;;
70420;SDS011;57848;51.938;15.520;2022-10-30T16:11:46;18.00;;;6.15;;
70420;SDS011;57848;51.938;15.520;2022-10-30T16:14:15;15.82;;;6.10;;
70420;SDS011;57848;51.938;15.520;2022-10-30T16:16:43;19.88;;;5.57;;
70420;SDS011;57848;51.938;15.520;2022-10-30T16:19:10;18.50;;;5.88;;
70420;SDS011;57848;51.938;15.520;2022-10-30T16:21:47;17.43;;;5.00;;
70420;SDS011;57848;51.938;15.520;2022-10-30T16:24:12;14.65;;;5.40;;
70420;SDS011;57848;51.938;15.520;2022-10-30T16:26:39;20.88;;;6.20;;
70420;SDS011;57848;51.938;15.520;2022-10-30T16:31:43;18.67;;;6.63;;
70420;SDS011;57848;51.938;15.520;2022-10-30T16:34:24;18.83;;;5.95;;
70420;SDS011;57848;51.938;15.520;2022-10-30T16:36:55;16.13;;;5.55;;
70420;SDS011;57848;51.938;15.520;2022-10-30T16:39:22;17.65;;;6.32;;